Elgin, Minnesota
Current Conditions -  °F | °C
As of 8:53 PM on Sunday 23 Nov 2014 (Local Time) from K9MN Reporting Station
Overcast Overcast  
Wind Chill: 29°   Ceiling: 500
Heat Index: 38°   Visibility: 2.5mi
Dew Point: 37°   Wind: 15mph
Humidity: 97%   Direction: 290°WNW
Pressure: 29.32"   Gusts: 23mph
Location:  44.13°N, 92.25°W
Report Text: K9MN 240253Z AUTO 29013G20KT 2 1/2SM OVC005 03/03 A2932 RMK AO1 P0001 60002 T00310027
Loading
Personal Weather Stations






























Interactive Weather Map New forecast layout! Learn more

10-Day Weather Forecast

Advertisements
Track Severe Weather on mobile